createdAt,value
2022-12-03T00:01:40.938Z,99.50
2022-12-03T00:04:12.575Z,99.70
2022-12-03T00:06:44.247Z,99.80
2022-12-03T00:09:15.891Z,99.90
2022-12-03T00:11:48.820Z,99.90
2022-12-03T00:14:20.429Z,99.90
2022-12-03T00:16:52.041Z,99.90
2022-12-03T00:19:23.713Z,99.90
2022-12-03T00:21:55.305Z,99.90
2022-12-03T00:24:26.918Z,99.90
2022-12-03T00:26:59.927Z,99.90
2022-12-03T00:29:31.633Z,99.90
2022-12-03T00:32:03.236Z,99.90
2022-12-03T00:34:34.852Z,99.90
2022-12-03T00:37:06.461Z,99.90
2022-12-03T00:39:38.103Z,99.90
2022-12-03T00:42:11.066Z,99.90
2022-12-03T00:44:42.670Z,99.90
2022-12-03T00:47:14.580Z,99.90
2022-12-03T00:49:46.220Z,99.90
2022-12-03T00:52:17.866Z,99.90
2022-12-03T00:54:49.455Z,99.90
2022-12-03T00:57:22.465Z,99.90
2022-12-03T00:59:54.075Z,99.90
2022-12-03T01:02:25.739Z,99.90
2022-12-03T01:04:57.563Z,99.90
2022-12-03T01:07:29.387Z,99.90
2022-12-03T01:10:01.012Z,99.90
2022-12-03T01:12:33.968Z,99.90
2022-12-03T01:15:06.138Z,99.90
2022-12-03T01:17:37.911Z,99.90
2022-12-03T01:20:10.097Z,99.90
2022-12-03T01:22:41.782Z,99.90
2022-12-03T01:25:13.408Z,99.90
2022-12-03T01:27:46.387Z,99.90
2022-12-03T01:30:17.979Z,99.90
2022-12-03T01:32:49.585Z,99.90
2022-12-03T01:35:21.215Z,99.90
2022-12-03T01:37:52.802Z,99.90
2022-12-03T01:40:24.479Z,99.90
2022-12-03T01:42:57.585Z,99.90
2022-12-03T01:45:29.191Z,99.90
2022-12-03T01:48:00.824Z,99.90
2022-12-03T01:50:33.242Z,99.90
2022-12-03T01:53:05.013Z,99.90
2022-12-03T01:55:36.939Z,99.90
2022-12-03T01:58:11.703Z,99.90
2022-12-03T02:00:43.388Z,99.90
2022-12-03T02:03:16.920Z,99.90
2022-12-03T02:05:48.554Z,99.90
2022-12-03T02:08:27.120Z,99.90
2022-12-03T02:10:59.996Z,99.90
2022-12-03T02:13:33.038Z,99.90
2022-12-03T02:16:04.900Z,99.90
2022-12-03T02:18:36.576Z,99.90
2022-12-03T02:21:12.853Z,99.90
2022-12-03T02:23:48.893Z,99.90
2022-12-03T02:26:21.981Z,99.90
2022-12-03T02:28:53.655Z,99.90
2022-12-03T02:31:25.459Z,99.90
2022-12-03T02:33:57.216Z,99.90
2022-12-03T02:36:28.884Z,99.90
2022-12-03T02:39:00.639Z,99.90
2022-12-03T02:41:52.157Z,99.90
2022-12-03T02:44:23.770Z,99.90
2022-12-03T02:46:55.422Z,99.90
2022-12-03T02:49:27.129Z,99.90
2022-12-03T02:51:58.799Z,99.90
2022-12-03T02:54:30.652Z,99.90
2022-12-03T02:57:03.978Z,99.90
2022-12-03T02:59:35.688Z,99.90
2022-12-03T03:02:07.470Z,99.90
2022-12-03T03:04:39.428Z,99.90
2022-12-03T03:07:11.378Z,99.90
2022-12-03T03:09:43.096Z,99.90
2022-12-03T03:12:16.100Z,99.90
2022-12-03T03:14:47.736Z,99.90
2022-12-03T03:17:19.386Z,99.90
2022-12-03T03:19:51.102Z,99.90
2022-12-03T03:22:29.379Z,99.90
2022-12-03T03:25:01.299Z,99.90
2022-12-03T03:27:34.462Z,99.90
2022-12-03T03:30:06.942Z,99.90
2022-12-03T03:32:39.206Z,99.90
2022-12-03T03:35:11.740Z,99.90
2022-12-03T03:37:43.390Z,99.90
2022-12-03T03:40:15.011Z,99.90
2022-12-03T03:42:48.332Z,99.90
2022-12-03T03:45:24.131Z,99.90
2022-12-03T03:48:00.528Z,99.90
2022-12-03T03:50:32.526Z,99.90
2022-12-03T03:53:04.731Z,99.90
2022-12-03T03:55:36.410Z,99.90
2022-12-03T03:58:09.519Z,99.90
2022-12-03T04:00:41.945Z,99.90
2022-12-03T04:03:13.658Z,99.90
2022-12-03T04:05:46.571Z,99.90
2022-12-03T04:08:18.350Z,99.90
2022-12-03T04:11:08.469Z,99.90
2022-12-03T04:13:41.437Z,99.90
2022-12-03T04:16:13.079Z,99.90
2022-12-03T04:18:44.791Z,99.90
2022-12-03T04:21:36.130Z,99.90
2022-12-03T04:24:08.957Z,99.90
2022-12-03T04:26:59.077Z,99.90
2022-12-03T04:29:32.079Z,99.90
2022-12-03T04:32:22.722Z,99.90
2022-12-03T04:35:12.890Z,99.90
2022-12-03T04:37:44.591Z,99.90
2022-12-03T04:40:35.173Z,99.90
2022-12-03T04:43:06.788Z,99.90
2022-12-03T04:45:39.759Z,99.90
2022-12-03T04:48:11.385Z,99.90
2022-12-03T04:50:43.097Z,99.90
2022-12-03T04:53:14.713Z,99.90
2022-12-03T04:55:46.353Z,99.90
2022-12-03T04:58:17.949Z,99.90
2022-12-03T05:00:51.972Z,99.90
2022-12-03T05:03:23.630Z,99.90
2022-12-03T05:05:55.301Z,99.90
2022-12-03T05:08:26.916Z,99.90
2022-12-03T05:10:58.493Z,99.90
2022-12-03T05:13:30.151Z,99.90
2022-12-03T05:16:03.251Z,99.90
2022-12-03T05:18:34.865Z,99.90
2022-12-03T05:21:06.468Z,99.90
2022-12-03T05:23:38.223Z,99.90
2022-12-03T05:26:10.242Z,99.90
2022-12-03T05:28:41.892Z,99.90
2022-12-03T05:31:14.941Z,99.90
2022-12-03T05:33:46.659Z,99.90
2022-12-03T05:36:18.243Z,99.90
2022-12-03T05:38:49.883Z,99.90
2022-12-03T05:41:40.119Z,99.90
2022-12-03T05:44:14.980Z,99.90
2022-12-03T05:46:50.360Z,99.90
2022-12-03T05:49:22.005Z,99.90
2022-12-03T05:51:58.154Z,99.90
2022-12-03T05:54:30.429Z,99.90
2022-12-03T05:57:02.038Z,99.90
2022-12-03T05:59:34.326Z,99.90
2022-12-03T06:02:07.329Z,99.90
2022-12-03T06:04:38.998Z,99.90
2022-12-03T06:07:13.968Z,99.90
2022-12-03T06:09:46.088Z,99.90
2022-12-03T06:12:17.747Z,99.90
2022-12-03T06:14:49.373Z,99.90
2022-12-03T06:17:22.367Z,99.90
2022-12-03T06:19:54.032Z,99.90
2022-12-03T06:22:25.645Z,99.90
2022-12-03T06:25:00.866Z,99.90
2022-12-03T06:27:36.673Z,99.90
2022-12-03T06:30:08.995Z,99.90
2022-12-03T06:32:42.025Z,99.90
2022-12-03T06:35:13.675Z,99.90
2022-12-03T06:37:45.421Z,99.90
2022-12-03T06:40:17.318Z,99.90
2022-12-03T06:42:48.936Z,99.90
2022-12-03T06:45:20.601Z,99.90
2022-12-03T06:47:53.562Z,99.90
2022-12-03T06:50:25.194Z,99.90
2022-12-03T06:52:56.812Z,99.90
2022-12-03T06:55:28.399Z,99.90
2022-12-03T06:58:00.013Z,99.90
2022-12-03T07:00:31.625Z,99.90
2022-12-03T07:50:16.998Z,99.90
2022-12-03T07:52:48.616Z,99.90
2022-12-03T07:55:20.421Z,99.90
2022-12-03T07:57:52.228Z,99.90
2022-12-03T08:00:23.988Z,99.90
2022-12-03T08:02:55.594Z,99.90
2022-12-03T08:05:29.729Z,99.90
2022-12-03T08:08:01.779Z,99.90
2022-12-03T08:10:33.493Z,99.90
2022-12-03T08:13:07.168Z,99.90
2022-12-03T08:15:39.700Z,99.90
2022-12-03T08:18:15.788Z,99.90
2022-12-03T08:20:49.447Z,99.90
2022-12-03T08:23:22.264Z,99.90
2022-12-03T08:25:53.873Z,99.90
2022-12-03T08:28:26.724Z,99.90
2022-12-03T08:31:00.132Z,99.90
2022-12-03T08:33:35.996Z,99.90
2022-12-03T08:36:12.453Z,99.90
2022-12-03T08:38:45.840Z,99.90
2022-12-03T08:41:39.216Z,99.90
2022-12-03T08:44:19.640Z,99.90
2022-12-03T08:46:53.893Z,99.90
2022-12-03T08:49:25.519Z,99.90
2022-12-03T08:51:59.739Z,99.90
2022-12-03T08:54:31.354Z,99.90
2022-12-03T08:57:06.614Z,99.90
2022-12-03T08:59:45.449Z,99.90
2022-12-03T09:02:21.391Z,99.90
2022-12-03T09:04:55.006Z,99.90
2022-12-03T09:07:28.240Z,99.90
2022-12-03T09:09:59.889Z,99.90
2022-12-03T09:12:31.490Z,99.90
2022-12-03T09:15:03.210Z,99.90
2022-12-03T09:17:34.805Z,99.90
2022-12-03T09:20:07.306Z,99.90
2022-12-03T09:22:40.234Z,99.90
2022-12-03T09:25:11.919Z,99.90
2022-12-03T09:27:43.514Z,99.90
2022-12-03T09:30:15.767Z,99.90
2022-12-03T09:32:47.424Z,99.90
2022-12-03T09:35:19.020Z,99.90
2022-12-03T09:37:52.016Z,99.90
2022-12-03T09:40:23.850Z,99.90
2022-12-03T09:42:58.434Z,99.90
2022-12-03T09:45:30.092Z,99.90
2022-12-03T09:48:03.104Z,99.90
2022-12-03T09:50:38.270Z,99.90
2022-12-03T09:53:13.161Z,99.90
2022-12-03T09:55:45.420Z,99.90
2022-12-03T09:58:18.268Z,99.90
2022-12-03T10:00:51.339Z,99.90
2022-12-03T10:03:29.716Z,99.90
2022-12-03T10:06:01.842Z,99.90
2022-12-03T10:08:34.877Z,99.90
2022-12-03T10:11:06.491Z,99.90
2022-12-03T10:13:38.617Z,99.90
2022-12-03T10:16:15.226Z,99.90
2022-12-03T10:18:48.293Z,99.90
2022-12-03T10:21:22.954Z,99.90
2022-12-03T10:24:09.451Z,99.90
2022-12-03T10:26:46.262Z,99.90
2022-12-03T10:29:19.072Z,99.90
2022-12-03T10:31:57.874Z,99.90
2022-12-03T10:34:31.414Z,99.90
2022-12-03T10:37:19.698Z,99.90
2022-12-03T10:39:56.543Z,99.90
2022-12-03T10:42:57.670Z,99.90
2022-12-03T10:45:29.260Z,99.90
2022-12-03T10:48:05.616Z,99.90
2022-12-03T10:50:37.467Z,99.90
2022-12-03T10:53:09.538Z,99.90
2022-12-03T10:55:42.527Z,99.90
2022-12-03T10:58:19.237Z,99.90
2022-12-03T11:00:51.783Z,99.90
2022-12-03T11:03:24.822Z,99.90
2022-12-03T11:05:57.302Z,99.90
2022-12-03T11:08:30.557Z,99.90
2022-12-03T11:11:04.089Z,99.90
2022-12-03T11:13:50.581Z,99.90
2022-12-03T11:17:04.833Z,99.90
2022-12-03T11:19:45.678Z,99.90
2022-12-03T11:22:26.291Z,99.90
2022-12-03T11:25:16.551Z,99.90
2022-12-03T11:28:33.496Z,99.90
2022-12-03T11:31:28.941Z,99.90
2022-12-03T11:34:48.670Z,99.90
2022-12-03T11:37:27.349Z,99.90
2022-12-03T11:40:13.838Z,99.90
2022-12-03T11:42:46.210Z,99.90
2022-12-03T11:45:19.388Z,99.90
2022-12-03T11:48:02.971Z,99.90
2022-12-03T11:50:39.698Z,99.90
2022-12-03T11:53:14.958Z,99.90
2022-12-03T11:55:48.596Z,99.90
2022-12-03T11:58:24.127Z,99.90
2022-12-03T12:00:56.883Z,99.90
2022-12-03T12:03:33.171Z,99.90
2022-12-03T12:06:06.122Z,99.90
2022-12-03T12:08:39.037Z,99.90
2022-12-03T12:11:16.914Z,99.90
2022-12-03T12:25:37.764Z,99.90
2022-12-03T12:28:09.650Z,99.90
2022-12-03T12:30:41.278Z,99.90
2022-12-03T12:33:26.020Z,99.90
2022-12-03T12:35:57.630Z,99.90
2022-12-03T12:38:30.608Z,99.90
2022-12-03T12:41:06.647Z,99.90
2022-12-03T12:43:39.499Z,99.90
2022-12-03T12:46:45.964Z,99.90
2022-12-03T12:49:09.139Z,99.90
2022-12-03T12:51:43.405Z,99.90
2022-12-03T12:54:17.935Z,99.90
2022-12-03T12:56:50.177Z,99.90
2022-12-03T12:59:24.265Z,99.90
2022-12-03T13:01:56.350Z,99.90
2022-12-03T13:04:30.126Z,99.90
2022-12-03T13:07:01.749Z,99.90
2022-12-03T13:09:34.959Z,99.90
2022-12-03T13:12:15.927Z,99.90
2022-12-03T13:14:47.633Z,99.90
2022-12-03T13:17:24.197Z,99.90
2022-12-03T13:20:06.729Z,99.90
2022-12-03T13:22:39.409Z,99.90
2022-12-03T13:25:57.819Z,99.90
2022-12-03T13:28:23.711Z,99.90
2022-12-03T13:30:55.697Z,99.90
2022-12-03T13:33:27.370Z,99.90
2022-12-03T13:35:59.004Z,99.90
2022-12-03T13:38:30.626Z,99.90
2022-12-03T13:41:03.828Z,99.90
2022-12-03T13:43:44.343Z,99.90
2022-12-03T13:46:16.399Z,99.90
2022-12-03T13:48:48.109Z,99.90
2022-12-03T13:51:23.308Z,99.90
2022-12-03T13:53:55.298Z,99.90
2022-12-03T13:56:28.972Z,99.90
2022-12-03T13:59:01.206Z,99.90
2022-12-03T14:01:32.934Z,99.90
2022-12-03T14:04:04.713Z,99.90
2022-12-03T14:06:36.425Z,99.90
2022-12-03T14:09:08.085Z,99.90
2022-12-03T14:11:59.535Z,99.90
2022-12-03T14:14:31.161Z,99.90
2022-12-03T14:17:04.411Z,99.90
2022-12-03T14:19:36.136Z,99.90
2022-12-03T14:22:09.609Z,99.90
2022-12-03T14:24:41.212Z,99.90
2022-12-03T14:27:14.176Z,99.90
2022-12-03T14:29:45.843Z,99.90
2022-12-03T14:32:17.747Z,99.90
2022-12-03T14:34:49.478Z,99.90
2022-12-03T14:37:21.101Z,99.90
2022-12-03T14:39:53.344Z,99.90
2022-12-03T14:42:26.720Z,99.90
2022-12-03T14:44:58.529Z,99.90
2022-12-03T14:47:30.284Z,99.90
2022-12-03T14:50:02.346Z,99.90
2022-12-03T14:52:34.147Z,99.90
2022-12-03T14:55:06.412Z,99.80
2022-12-03T14:57:39.544Z,99.80
2022-12-03T15:00:12.676Z,99.70
2022-12-03T15:02:44.571Z,99.60
2022-12-03T15:05:16.475Z,99.60
2022-12-03T15:07:48.348Z,99.60
2022-12-03T15:10:20.203Z,99.60
2022-12-03T15:12:53.296Z,99.60
2022-12-03T15:15:25.100Z,99.50
2022-12-03T15:17:56.860Z,99.60
2022-12-03T15:20:28.673Z,99.50
2022-12-03T15:23:00.459Z,99.50
2022-12-03T15:25:34.123Z,99.50
2022-12-03T15:28:07.243Z,99.50
2022-12-03T15:30:38.984Z,99.40
2022-12-03T15:33:11.180Z,99.40
2022-12-03T15:35:44.171Z,99.40
2022-12-03T15:38:15.932Z,99.40
2022-12-03T15:40:47.740Z,99.40
2022-12-03T15:43:20.812Z,99.40
2022-12-03T15:45:52.664Z,99.40
2022-12-03T15:48:24.555Z,99.30
2022-12-03T15:50:56.306Z,99.30
2022-12-03T15:53:28.067Z,99.20
2022-12-03T15:55:59.923Z,99.20
2022-12-03T15:58:33.121Z,99.20
2022-12-03T16:01:04.855Z,99.30
2022-12-03T16:03:36.715Z,99.30
2022-12-03T16:06:08.330Z,99.30
2022-12-03T16:08:40.010Z,99.30
2022-12-03T16:11:11.710Z,99.80
2022-12-03T16:13:44.700Z,99.90
2022-12-03T16:16:16.512Z,99.90
2022-12-03T16:18:48.543Z,99.90
2022-12-03T16:21:26.260Z,99.90
2022-12-03T16:23:59.193Z,99.90
2022-12-03T16:26:30.864Z,99.90
2022-12-03T16:29:04.046Z,99.90
2022-12-03T16:31:37.153Z,99.90
2022-12-03T16:34:09.333Z,99.60
2022-12-03T16:36:40.977Z,99.10
2022-12-03T16:39:12.927Z,98.50
2022-12-03T16:41:44.762Z,97.50
2022-12-03T16:44:31.350Z,96.80
2022-12-03T16:47:03.090Z,95.90
2022-12-03T16:49:34.706Z,95.20
2022-12-03T16:52:06.406Z,94.60
2022-12-03T16:54:38.041Z,94.00
2022-12-03T16:57:09.636Z,93.50
2022-12-03T16:59:46.953Z,93.10
2022-12-03T17:02:18.662Z,92.60
2022-12-03T17:04:50.321Z,92.20
2022-12-03T17:07:21.928Z,91.80
2022-12-03T17:09:53.840Z,91.40
2022-12-03T17:12:33.331Z,91.00
2022-12-03T17:15:15.497Z,90.70
2022-12-03T17:17:47.110Z,90.50
2022-12-03T17:20:18.854Z,90.20
2022-12-03T17:22:50.505Z,89.90
2022-12-03T17:25:22.209Z,89.30
2022-12-03T17:27:53.983Z,88.70
2022-12-03T17:30:27.384Z,88.20
2022-12-03T17:32:58.984Z,87.90
2022-12-03T17:35:30.853Z,88.10
2022-12-03T17:38:02.554Z,87.90
2022-12-03T17:40:34.197Z,87.30
2022-12-03T17:43:05.842Z,86.80
2022-12-03T17:45:38.882Z,86.30
2022-12-03T17:48:10.573Z,86.00
2022-12-03T17:50:42.291Z,85.90
2022-12-03T17:53:14.044Z,85.60
2022-12-03T17:55:46.932Z,85.20
2022-12-03T17:58:18.579Z,84.80
2022-12-03T18:00:51.629Z,84.50
2022-12-03T18:03:23.302Z,84.20
2022-12-03T18:05:55.345Z,84.00
2022-12-03T18:08:27.024Z,83.70
2022-12-03T18:10:58.755Z,83.40
2022-12-03T18:13:30.370Z,83.20
2022-12-03T18:16:03.453Z,82.90
2022-12-03T18:18:35.210Z,82.60
2022-12-03T18:21:07.489Z,82.50
2022-12-03T18:23:39.254Z,82.20
2022-12-03T18:26:10.864Z,82.00
2022-12-03T18:28:42.561Z,81.80
2022-12-03T18:31:16.425Z,81.70
2022-12-03T18:33:48.311Z,81.50
2022-12-03T18:36:21.783Z,81.30
2022-12-03T18:38:55.288Z,81.30
2022-12-03T18:41:27.151Z,81.10
2022-12-03T18:43:58.795Z,81.00
2022-12-03T18:46:52.436Z,80.80
2022-12-03T18:49:23.462Z,80.70
2022-12-03T18:51:59.298Z,80.70
2022-12-03T18:54:31.450Z,80.60
2022-12-03T18:57:03.169Z,80.70
2022-12-03T18:59:34.787Z,80.50
2022-12-03T19:02:08.167Z,80.30
2022-12-03T19:04:39.879Z,80.30
2022-12-03T19:07:11.789Z,80.20
2022-12-03T19:09:43.702Z,80.20
2022-12-03T19:12:16.683Z,79.50
2022-12-03T19:14:48.581Z,78.80
2022-12-03T19:17:21.877Z,78.50
2022-12-03T19:19:53.982Z,78.40
2022-12-03T19:22:25.910Z,78.60
2022-12-03T19:24:57.733Z,78.80
2022-12-03T19:27:29.750Z,79.00
2022-12-03T19:30:01.516Z,79.40
2022-12-03T19:32:35.410Z,79.90
2022-12-03T19:35:11.276Z,80.30
2022-12-03T19:37:43.131Z,80.70
2022-12-03T19:40:15.209Z,81.00
2022-12-03T19:42:46.927Z,81.60
2022-12-03T19:45:18.539Z,82.00
2022-12-03T19:47:51.485Z,82.50
2022-12-03T19:50:23.794Z,83.00
2022-12-03T19:52:55.566Z,84.20
2022-12-03T20:02:04.799Z,86.50
2022-12-03T20:04:36.959Z,86.70
2022-12-03T20:42:41.449Z,91.40
2022-12-03T20:45:13.329Z,92.20
2022-12-03T20:47:44.955Z,93.00
2022-12-03T20:50:16.771Z,95.70
2022-12-03T20:53:03.565Z,98.20
2022-12-03T20:55:40.016Z,99.20
2022-12-03T20:58:13.001Z,99.30
2022-12-03T21:00:44.622Z,98.70
2022-12-03T21:03:16.384Z,97.80
2022-12-03T21:05:48.199Z,96.80
2022-12-03T21:08:39.645Z,95.90
2022-12-03T21:11:12.788Z,95.00
2022-12-03T21:13:46.975Z,94.10
2022-12-03T21:16:34.498Z,93.30
2022-12-03T21:19:13.422Z,92.60
2022-12-03T21:21:45.258Z,91.90
2022-12-03T21:24:17.228Z,91.40
2022-12-03T21:26:50.148Z,90.90
2022-12-03T21:29:23.531Z,90.40
2022-12-03T21:31:55.196Z,90.00
2022-12-03T21:34:32.576Z,89.60
2022-12-03T21:37:07.548Z,89.20
2022-12-03T21:39:39.309Z,88.40
2022-12-03T21:42:18.863Z,87.60
2022-12-03T21:45:04.452Z,87.20
2022-12-03T21:47:37.500Z,86.70
2022-12-03T21:50:11.059Z,86.50
2022-12-03T21:52:42.731Z,86.20
2022-12-03T21:55:14.495Z,85.60
2022-12-03T21:57:46.300Z,85.20
2022-12-03T22:00:20.325Z,84.70
2022-12-03T22:02:52.316Z,84.30
2022-12-03T22:05:24.332Z,84.00
2022-12-03T22:07:56.216Z,83.80
2022-12-03T22:10:28.084Z,83.50
2022-12-03T22:12:59.881Z,83.20
2022-12-03T22:15:33.170Z,82.90
2022-12-03T22:18:04.942Z,82.60
2022-12-03T22:20:36.715Z,82.70
2022-12-03T22:23:08.510Z,82.70
2022-12-03T22:25:40.290Z,82.40
2022-12-03T22:28:12.097Z,82.10
2022-12-03T22:30:45.284Z,82.00
2022-12-03T22:33:17.065Z,81.70
2022-12-03T22:35:57.048Z,81.50
2022-12-03T22:38:29.983Z,81.20
2022-12-03T22:41:05.127Z,81.30
2022-12-03T22:43:37.347Z,81.10
2022-12-03T22:46:12.527Z,81.00
2022-12-03T22:48:46.122Z,80.70
2022-12-03T22:51:20.921Z,80.50
2022-12-03T22:53:54.502Z,80.50
2022-12-03T22:56:27.817Z,80.40
2022-12-03T22:58:59.849Z,80.30
2022-12-03T23:01:34.948Z,80.70
2022-12-03T23:04:07.998Z,80.40
2022-12-03T23:06:40.173Z,80.20
2022-12-03T23:09:11.983Z,80.20
2022-12-03T23:11:45.325Z,80.20
2022-12-03T23:14:16.957Z,80.20
2022-12-03T23:16:50.047Z,80.30
2022-12-03T23:19:22.558Z,80.20
2022-12-03T23:21:54.353Z,80.10
2022-12-03T23:24:26.231Z,79.90
2022-12-03T23:26:58.081Z,79.80
2022-12-03T23:29:29.902Z,79.80
2022-12-03T23:32:03.156Z,79.50
2022-12-03T23:34:34.997Z,79.40
2022-12-03T23:37:06.832Z,79.40
2022-12-03T23:39:38.728Z,79.30
2022-12-03T23:42:10.539Z,79.20
2022-12-03T23:44:42.306Z,79.20
2022-12-03T23:47:15.738Z,79.00
2022-12-03T23:49:47.617Z,78.10
2022-12-03T23:52:19.371Z,77.30
2022-12-03T23:54:51.160Z,77.00
2022-12-03T23:57:22.971Z,77.00
2022-12-03T23:59:54.999Z,77.20
